Time;durP1;ratioP1;P1;durP2;ratioP2;P2;SDS_P1;SDS_P2;PMS_P1;PMS_P2;Temp;Humidity;BMP_temperature;BMP_pressure;BME280_temperature;BME280_humidity;BME280_pressure;Samples;Min_cycle;Max_cycle;Signal;HPM_P1;HPM_P2
2022/01/12 00:01:36;;;;;;;41.92;18.83;;;;;;;2.14;84.68;103547.25;5085312;28;20017;-72
2022/01/12 00:04:02;;;;;;;43.80;19.20;;;;;;;2.13;84.70;103550.59;5084251;28;20028;-72
2022/01/12 00:06:28;;;;;;;47.58;19.35;;;;;;;2.14;84.73;103561.78;5087793;28;20278;-72
2022/01/12 00:08:54;;;;;;;47.80;19.95;;;;;;;2.14;85.23;103562.69;5088630;28;20031;-72
2022/01/12 00:11:20;;;;;;;43.83;19.60;;;;;;;2.15;84.89;103567.09;5087439;28;20024;-72
2022/01/12 00:13:46;;;;;;;46.05;19.85;;;;;;;2.15;84.71;103567.09;5091792;28;20024;-72
2022/01/12 00:16:11;;;;;;;51.85;19.40;;;;;;;2.16;85.44;103576.63;5085204;28;20015;-72
2022/01/12 00:18:37;;;;;;;41.45;19.02;;;;;;;2.17;85.34;103572.41;5083511;28;20016;-72
2022/01/12 00:21:02;;;;;;;40.58;18.67;;;;;;;2.17;85.23;103573.31;5095475;28;20070;-72
2022/01/12 00:23:28;;;;;;;40.85;19.33;;;;;;;2.18;84.87;103580.25;5088328;28;20278;-72
2022/01/12 00:26:04;;;;;;;48.78;20.13;;;;;;;2.19;85.23;103582.09;5087090;28;20016;-72
2022/01/12 00:34:02;;;;;;;47.90;20.13;;;;;;;2.21;85.04;103580.56;5090200;28;20458;-72
2022/01/12 00:36:29;;;;;;;48.92;20.83;;;;;;;2.22;84.71;103594.38;5100881;28;20141;-72
2022/01/12 00:38:54;;;;;;;52.80;20.55;;;;;;;2.21;84.90;103596.00;5086905;28;20016;-72
2022/01/12 00:41:20;;;;;;;43.30;19.08;;;;;;;2.23;85.18;103596.16;5088703;28;20186;-72
2022/01/12 00:43:49;;;;;;;46.80;19.45;;;;;;;2.23;84.31;103594.50;5086571;28;20024;-72
2022/01/12 00:46:15;;;;;;;48.22;20.42;;;;;;;2.23;84.94;103609.94;5086052;28;20087;-72
2022/01/12 00:48:41;;;;;;;48.47;20.55;;;;;;;2.23;85.30;103607.38;5099528;28;20012;-72
2022/01/12 00:51:08;;;;;;;50.50;20.65;;;;;;;2.22;85.24;103618.41;5104301;28;20270;-72
2022/01/12 00:53:33;;;;;;;47.05;20.88;;;;;;;2.22;86.02;103607.22;5085995;28;20086;-72
2022/01/12 00:55:59;;;;;;;48.60;20.75;;;;;;;2.20;85.98;103614.78;5090253;28;20020;-72
2022/01/12 00:58:24;;;;;;;50.13;21.30;;;;;;;2.20;86.74;103609.66;5088548;28;20030;-72
2022/01/12 01:00:49;;;;;;;48.63;21.50;;;;;;;2.19;87.46;103614.63;5086073;28;20013;-72
2022/01/12 01:03:15;;;;;;;54.08;22.35;;;;;;;2.17;88.36;103616.13;5086263;28;20085;-72
2022/01/12 01:05:41;;;;;;;56.85;22.38;;;;;;;2.16;88.62;103622.94;5090721;28;20254;-72
2022/01/12 01:08:07;;;;;;;54.80;23.27;;;;;;;2.14;89.06;103624.41;5087071;28;20039;-72
2022/01/12 01:10:46;;;;;;;56.80;23.55;;;;;;;2.12;89.71;103627.63;5090343;28;20016;-72
2022/01/12 01:13:14;;;;;;;61.72;24.60;;;;;;;2.10;89.87;103630.03;5089313;28;20266;-72
2022/01/12 01:26:34;;;;;;;64.32;25.80;;;;;;;1.96;92.52;103613.16;5078487;28;20031;-72
2022/01/12 01:28:59;;;;;;;58.65;24.40;;;;;;;1.91;92.41;103612.69;5082929;28;20032;-72
2022/01/12 01:31:30;;;;;;;62.10;25.20;;;;;;;1.86;92.72;103595.88;5085562;28;20031;-72
2022/01/12 01:33:56;;;;;;;66.03;26.38;;;;;;;1.83;93.31;103610.97;5083946;28;20016;-72
2022/01/12 01:36:27;;;;;;;64.32;25.20;;;;;;;1.79;93.16;103615.66;5085965;28;20035;-72
2022/01/12 01:38:52;;;;;;;58.10;26.60;;;;;;;1.77;93.78;103624.84;5083901;28;20025;-72
2022/01/12 01:41:17;;;;;;;67.53;26.92;;;;;;;1.78;93.46;103626.69;5085475;28;20239;-72
2022/01/12 01:44:06;;;;;;;68.88;27.30;;;;;;;1.77;93.95;103630.91;5085306;28;20016;-72
2022/01/12 01:54:40;;;;;;;64.57;27.23;;;;;;;1.81;93.57;103638.22;5088701;28;20055;-72
2022/01/12 01:57:05;;;;;;;67.97;27.20;;;;;;;1.81;93.38;103622.78;5078439;28;20028;-73
2022/01/12 01:59:30;;;;;;;64.28;27.40;;;;;;;1.78;94.28;103612.16;5089740;28;20016;-72
2022/01/12 02:01:55;;;;;;;72.63;26.85;;;;;;;1.76;94.41;103607.63;5082463;28;20019;-72
2022/01/12 02:04:21;;;;;;;71.45;27.05;;;;;;;1.73;94.17;103600.50;5089847;28;20039;-73
2022/01/12 02:06:46;;;;;;;63.05;26.52;;;;;;;1.71;94.49;103595.19;5083934;28;20152;-72
2022/01/12 02:09:11;;;;;;;64.50;26.10;;;;;;;1.71;94.63;103589.16;5090789;28;20051;-72
2022/01/12 02:11:37;;;;;;;62.08;26.42;;;;;;;1.69;94.07;103599.25;5083805;28;20020;-72
2022/01/12 02:14:02;;;;;;;64.53;27.52;;;;;;;1.70;94.58;103597.63;5091306;28;20028;-72
2022/01/12 02:16:35;;;;;;;64.75;26.33;;;;;;;1.70;94.06;103592.47;5082621;28;20071;-72
2022/01/12 02:19:45;;;;;;;70.97;26.60;;;;;;;1.71;94.53;103596.88;5090012;28;20065;-72
2022/01/12 02:35:53;;;;;;;69.80;26.13;;;;;;;1.76;94.47;103629.09;5089007;28;20069;-72
2022/01/12 02:41:04;;;;;;;65.38;24.58;;;;;;;1.76;93.97;103634.22;5088610;28;20186;-72
2022/01/12 02:50:33;;;;;;;68.47;25.92;;;;;;;1.76;94.28;103636.81;5086204;28;20016;-72
2022/01/12 02:54:26;;;;;;;62.13;25.30;;;;;;;1.78;94.37;103635.28;5088885;28;20020;-72
2022/01/12 02:56:51;;;;;;;68.00;27.45;;;;;;;1.79;94.03;103649.06;5090805;28;20099;-72
2022/01/12 02:59:17;;;;;;;71.97;27.58;;;;;;;1.79;93.87;103643.94;5085458;28;20016;-72
2022/01/12 03:02:04;;;;;;;73.10;27.48;;;;;;;1.80;94.12;103648.31;5091078;28;20082;-73
2022/01/12 03:04:29;;;;;;;73.97;27.65;;;;;;;1.80;94.23;103654.38;5089207;28;20031;-72
2022/01/12 03:07:04;;;;;;;66.93;26.65;;;;;;;1.84;93.67;103664.22;5092061;28;20016;-72
2022/01/12 03:09:29;;;;;;;67.55;27.73;;;;;;;1.84;94.07;103671.94;5087884;28;20032;-73
2022/01/12 03:11:54;;;;;;;73.43;27.20;;;;;;;1.85;93.74;103681.44;5086541;28;20020;-73
2022/01/12 03:14:20;;;;;;;69.82;27.52;;;;;;;1.84;93.98;103679.66;5102078;28;20174;-73
2022/01/12 03:16:45;;;;;;;77.93;28.70;;;;;;;1.84;93.50;103679.66;5102250;28;20028;-72
2022/01/12 03:19:10;;;;;;;71.35;27.73;;;;;;;1.82;93.51;103683.69;5089067;28;20040;-72
2022/01/12 03:21:36;;;;;;;72.28;26.85;;;;;;;1.82;93.69;103690.53;5092291;28;20194;-72
2022/01/12 03:24:03;;;;;;;71.32;28.30;;;;;;;1.83;93.72;103692.34;5080637;28;20031;-72
2022/01/12 03:26:30;;;;;;;72.57;28.63;;;;;;;1.82;93.62;103698.22;5087106;28;20024;-72
2022/01/12 03:28:57;;;;;;;67.45;27.23;;;;;;;1.83;94.19;103694.91;5081645;28;20206;-72
2022/01/12 03:31:28;;;;;;;72.22;28.45;;;;;;;1.84;93.73;103686.44;5092149;28;20186;-72
2022/01/12 03:34:07;;;;;;;80.47;29.17;;;;;;;1.84;94.09;103699.28;5089485;28;20194;-72
2022/01/12 03:37:05;;;;;;;84.43;29.58;;;;;;;1.85;94.06;103691.72;5093204;28;20016;-72
2022/01/12 03:39:28;;;;;;;74.18;29.30;;;;;;;1.85;93.86;103688.25;5088627;28;20070;-72
2022/01/12 03:41:53;;;;;;;78.60;28.95;;;;;;;1.84;94.13;103686.44;5093405;28;20175;-73
2022/01/12 03:44:18;;;;;;;79.57;29.40;;;;;;;1.82;93.99;103677.66;5089333;28;20070;-72
2022/01/12 03:46:48;;;;;;;83.10;28.98;;;;;;;1.82;93.72;103676.00;5093678;28;20062;-72
2022/01/12 03:49:15;;;;;;;81.70;29.55;;;;;;;1.80;94.18;103676.59;5088022;28;20032;-73
2022/01/12 03:51:41;;;;;;;86.20;30.33;;;;;;;1.78;94.70;103675.50;5093274;28;20027;-73
2022/01/12 03:54:06;;;;;;;79.57;30.63;;;;;;;1.77;94.86;103672.03;5088714;28;20028;-72
2022/01/12 03:56:32;;;;;;;86.25;32.28;;;;;;;1.77;94.99;103677.19;5092068;28;20082;-72
2022/01/12 03:58:58;;;;;;;74.47;29.48;;;;;;;1.76;94.43;103683.06;5089275;28;20271;-73
2022/01/12 04:01:23;;;;;;;77.53;30.33;;;;;;;1.78;95.07;103706.38;5094012;28;20061;-72
2022/01/12 04:04:00;;;;;;;83.65;30.63;;;;;;;1.78;94.59;103704.69;5084060;28;20024;-73
2022/01/12 04:09:09;;;;;;;82.90;29.40;;;;;;;1.80;94.38;103710.94;5082138;28;20342;-73
2022/01/12 04:11:35;;;;;;;82.45;30.25;;;;;;;1.80;94.39;103712.59;5093975;28;20020;-73
2022/01/12 04:14:00;;;;;;;81.50;31.67;;;;;;;1.80;95.06;103708.34;5089580;28;20027;-73
2022/01/12 04:16:26;;;;;;;94.82;32.53;;;;;;;1.81;94.75;103715.31;5079976;28;20370;-73
2022/01/12 04:18:52;;;;;;;82.00;31.63;;;;;;;1.82;94.58;103716.22;5084989;28;20020;-72
2022/01/12 04:21:24;;;;;;;85.30;32.10;;;;;;;1.83;94.86;103708.66;5087023;28;20334;-73
2022/01/12 04:23:50;;;;;;;95.93;32.65;;;;;;;1.82;95.08;103708.50;5082199;28;20070;-73
2022/01/12 04:26:15;;;;;;;87.68;32.28;;;;;;;1.81;95.47;103715.31;5095010;28;20028;-73
2022/01/12 04:28:43;;;;;;;90.75;32.78;;;;;;;1.81;95.30;103714.41;5088226;28;20029;-73
2022/01/12 04:31:10;;;;;;;95.55;32.95;;;;;;;1.80;95.33;103717.75;5088436;28;20117;-73
2022/01/12 04:33:36;;;;;;;87.60;33.10;;;;;;;1.80;95.27;103708.34;5083736;28;20143;-72
2022/01/12 04:36:04;;;;;;;79.55;31.25;;;;;;;1.80;95.07;103708.34;5088678;28;20293;-73
2022/01/12 04:38:33;;;;;;;89.10;32.00;;;;;;;1.79;95.54;103703.94;5088701;28;20223;-73
2022/01/12 04:41:00;;;;;;;88.65;33.15;;;;;;;1.80;95.88;103703.22;5098034;28;20011;-73
2022/01/12 04:43:26;;;;;;;87.93;34.22;;;;;;;1.79;95.37;103695.34;5104559;28;20030;-73
2022/01/12 04:50:49;;;;;;;92.13;33.33;;;;;;;1.81;95.69;103705.03;5089150;28;20035;-72
2022/01/12 04:53:16;;;;;;;86.78;32.53;;;;;;;1.82;95.29;103701.69;5091545;28;20170;-73
2022/01/12 04:55:42;;;;;;;91.28;34.75;;;;;;;1.83;95.54;103697.50;5088542;28;20048;-72
2022/01/12 04:58:08;;;;;;;95.25;34.60;;;;;;;1.82;95.67;103691.41;5104322;28;20024;-73
2022/01/12 05:00:35;;;;;;;97.63;33.45;;;;;;;1.84;95.63;103683.88;5092626;28;20068;-73
2022/01/12 05:13:46;;;;;;;94.43;32.17;;;;;;;1.86;95.93;103691.00;5080858;28;20018;-73
2022/01/12 05:16:11;;;;;;;103.72;34.67;;;;;;;1.86;95.75;103691.00;5091528;28;20263;-73
2022/01/12 05:18:37;;;;;;;94.45;32.95;;;;;;;1.87;95.91;103695.41;5085390;28;20047;-73
2022/01/12 05:21:04;;;;;;;93.20;33.28;;;;;;;1.89;95.52;103699.03;5093291;28;20027;-73
2022/01/12 05:23:29;;;;;;;96.15;32.78;;;;;;;1.88;95.78;103693.72;5075279;28;20140;-73
2022/01/12 05:25:55;;;;;;;100.57;35.60;;;;;;;1.89;95.79;103693.88;5093687;28;20035;-72
2022/01/12 05:28:22;;;;;;;97.40;33.25;;;;;;;1.89;95.67;103698.13;5084781;28;20017;-73
2022/01/12 05:30:48;;;;;;;92.57;32.22;;;;;;;1.88;95.50;103702.38;5093663;28;20026;-72
2022/01/12 05:33:14;;;;;;;96.95;32.65;;;;;;;1.89;95.90;103703.28;5085902;28;20068;-73
2022/01/12 05:35:42;;;;;;;99.15;33.35;;;;;;;1.89;95.57;103709.31;5093498;28;20073;-72
2022/01/12 05:38:09;;;;;;;104.65;33.63;;;;;;;1.88;95.40;103717.78;5085526;28;20024;-73
2022/01/12 05:40:35;;;;;;;96.20;33.95;;;;;;;1.88;96.09;103724.56;5093119;28;20174;-72
2022/01/12 05:43:01;;;;;;;95.75;33.10;;;;;;;1.87;95.33;103718.53;5087623;28;20268;-72
2022/01/12 05:45:28;;;;;;;95.47;33.20;;;;;;;1.88;95.43;103722.94;5085265;28;20048;-72
2022/01/12 05:50:20;;;;;;;97.07;32.38;;;;;;;1.88;95.82;103728.09;5088349;28;20016;-72
2022/01/12 05:52:45;;;;;;;101.70;33.53;;;;;;;1.88;95.99;103725.50;5084362;28;20020;-72
2022/01/12 05:55:12;;;;;;;110.55;34.28;;;;;;;1.88;95.60;103722.94;5084336;28;20048;-73
2022/01/12 05:57:38;;;;;;;98.03;33.13;;;;;;;1.89;95.72;103718.69;5090636;28;20111;-72
2022/01/12 06:00:13;;;;;;;102.85;34.70;;;;;;;1.89;95.81;103724.75;5088544;28;20294;-72
2022/01/12 06:02:39;;;;;;;92.53;32.15;;;;;;;1.89;95.49;103714.44;5086341;28;20028;-72
2022/01/12 06:05:05;;;;;;;98.53;33.47;;;;;;;1.90;95.88;103717.97;5082735;28;20262;-72
2022/01/12 06:07:30;;;;;;;106.60;35.42;;;;;;;1.90;96.17;103721.44;5085669;28;20028;-72
2022/01/12 06:09:56;;;;;;;99.70;33.17;;;;;;;1.90;96.39;103724.00;5089012;28;20033;-72
2022/01/12 06:12:22;;;;;;;110.30;35.10;;;;;;;1.91;96.33;103725.81;5086617;28;20808;-73
2022/01/12 06:14:47;;;;;;;111.55;34.20;;;;;;;1.91;95.89;103725.81;5093763;28;20175;-72
2022/01/12 06:17:12;;;;;;;113.10;37.00;;;;;;;1.90;95.94;103723.09;5089043;28;20024;-73
2022/01/12 06:19:38;;;;;;;112.38;35.72;;;;;;;1.90;96.57;103726.56;5084597;28;20095;-72
2022/01/12 06:22:04;;;;;;;108.05;34.47;;;;;;;1.90;96.27;103738.53;5088034;28;20008;-73
2022/01/12 06:24:30;;;;;;;113.57;35.88;;;;;;;1.91;96.07;103743.81;5084913;28;20043;-73
2022/01/12 06:26:56;;;;;;;110.82;35.55;;;;;;;1.91;96.52;103755.75;5083952;28;20085;-72
2022/01/12 06:29:31;;;;;;;117.85;35.33;;;;;;;1.90;96.29;103752.28;5085035;28;20054;-72
2022/01/12 06:31:57;;;;;;;106.30;34.40;;;;;;;1.91;96.54;103766.97;5088860;28;20239;-73
2022/01/12 06:34:23;;;;;;;112.32;35.58;;;;;;;1.92;96.74;103765.28;5086017;28;20027;-73
2022/01/12 06:36:48;;;;;;;108.97;34.83;;;;;;;1.91;96.08;103769.53;5083131;28;20130;-73
2022/01/12 06:39:20;;;;;;;107.10;35.28;;;;;;;1.92;96.05;103771.34;5095096;28;20016;-72
2022/01/12 06:41:50;;;;;;;114.10;35.70;;;;;;;1.92;96.27;103776.47;5085150;28;20263;-73
2022/01/12 06:44:17;;;;;;;113.93;36.97;;;;;;;1.92;96.05;103780.72;5094828;28;20265;-73
2022/01/12 06:46:44;;;;;;;105.97;33.97;;;;;;;1.94;96.58;103791.16;5083924;28;20259;-73
2022/01/12 06:49:11;;;;;;;113.28;36.22;;;;;;;1.92;96.71;103797.06;5078320;28;20017;-73
2022/01/12 06:51:36;;;;;;;109.47;35.60;;;;;;;1.94;96.38;103793.75;5090978;28;20251;-73
2022/01/12 06:54:02;;;;;;;113.40;37.33;;;;;;;1.92;96.39;103780.72;5083061;28;20021;-72
2022/01/12 06:56:27;;;;;;;105.63;35.33;;;;;;;1.94;96.33;103786.03;5083303;28;20172;-73
2022/01/12 06:58:52;;;;;;;115.28;35.45;;;;;;;1.91;96.82;103787.53;5084301;28;20043;-73
2022/01/12 07:01:17;;;;;;;108.60;35.17;;;;;;;1.92;96.49;103796.16;5083136;28;20020;-73
2022/01/12 07:03:43;;;;;;;110.88;36.17;;;;;;;1.92;96.94;103791.91;5085782;28;20024;-73
2022/01/12 07:06:08;;;;;;;115.47;35.65;;;;;;;1.92;96.77;103791.91;5102937;28;20023;-73
2022/01/12 07:08:34;;;;;;;114.63;36.55;;;;;;;1.94;96.42;103794.69;5099155;28;20031;-73
2022/01/12 07:11:00;;;;;;;109.13;34.20;;;;;;;1.94;96.69;103807.53;5106094;28;20278;-73
2022/01/12 07:13:25;;;;;;;116.65;34.22;;;;;;;1.95;96.54;103817.03;5106282;28;20047;-73
2022/01/12 07:15:51;;;;;;;105.78;34.60;;;;;;;1.96;96.25;103824.03;5106323;28;20023;-72
2022/01/12 07:18:16;;;;;;;106.57;35.22;;;;;;;1.96;96.60;103813.72;5103013;28;20024;-73
2022/01/12 07:20:42;;;;;;;115.57;36.92;;;;;;;1.96;96.68;103802.56;5105047;28;20083;-73
2022/01/12 07:23:07;;;;;;;112.80;35.10;;;;;;;1.97;97.07;103812.06;5104245;28;20012;-73
2022/01/12 07:25:32;;;;;;;114.05;35.42;;;;;;;1.98;96.88;103812.22;5105832;28;20027;-73
2022/01/12 07:27:58;;;;;;;110.10;34.92;;;;;;;1.98;96.68;103808.75;5094437;28;20083;-73
2022/01/12 07:30:24;;;;;;;114.15;35.65;;;;;;;1.96;97.26;103818.88;5105704;28;20028;-72
2022/01/12 07:32:51;;;;;;;106.35;34.25;;;;;;;1.97;96.55;103822.34;5105689;28;20310;-72
2022/01/12 07:35:17;;;;;;;105.22;33.50;;;;;;;1.98;97.26;103824.19;5105791;28;20259;-73
2022/01/12 07:37:42;;;;;;;107.05;35.50;;;;;;;1.97;96.66;103838.72;5105731;28;20019;-73
2022/01/12 07:40:07;;;;;;;115.65;34.65;;;;;;;2.00;97.15;103843.25;5103324;28;20016;-73
2022/01/12 07:42:33;;;;;;;112.68;35.22;;;;;;;2.01;97.14;103852.78;5101945;28;20020;-73
2022/01/12 07:45:00;;;;;;;103.97;33.90;;;;;;;2.02;96.76;103860.66;5105718;28;20053;-72
2022/01/12 07:47:28;;;;;;;113.28;35.13;;;;;;;2.02;96.90;103860.66;5104206;28;20020;-73
2022/01/12 07:49:54;;;;;;;105.70;33.72;;;;;;;2.04;97.30;103861.75;5105618;28;20028;-73
2022/01/12 07:52:20;;;;;;;117.60;35.25;;;;;;;2.05;96.97;103860.09;5105315;28;20046;-73
2022/01/12 07:54:45;;;;;;;109.97;35.08;;;;;;;2.05;96.98;103855.84;5100282;28;20031;-73
2022/01/12 07:57:10;;;;;;;106.90;35.95;;;;;;;2.06;96.89;103865.41;5100750;28;20028;-73
2022/01/12 07:59:35;;;;;;;111.38;35.67;;;;;;;2.07;96.84;103874.00;5097328;28;20016;-73
2022/01/12 08:02:01;;;;;;;115.32;33.30;;;;;;;2.06;96.67;103874.78;5099890;28;20294;-73
2022/01/12 08:04:27;;;;;;;114.28;35.50;;;;;;;2.06;96.94;103891.13;5103955;28;20019;-73
2022/01/12 08:06:52;;;;;;;120.72;36.10;;;;;;;2.07;96.98;103884.31;5097900;28;20012;-73
2022/01/12 08:09:17;;;;;;;118.22;36.22;;;;;;;2.07;96.95;103894.59;5105097;28;20051;-73
2022/01/12 08:11:43;;;;;;;134.73;38.75;;;;;;;2.08;96.91;103896.44;5105054;28;20020;-73
2022/01/12 08:14:08;;;;;;;121.63;34.90;;;;;;;2.09;97.08;103896.59;5104863;28;20205;-73
2022/01/12 08:16:33;;;;;;;117.35;35.22;;;;;;;2.11;97.15;103911.28;5104897;28;20445;-73
2022/01/12 08:18:58;;;;;;;120.00;35.00;;;;;;;2.12;97.87;103903.72;5074562;28;20375;-72
2022/01/12 08:21:26;;;;;;;126.28;36.80;;;;;;;2.12;97.31;103911.44;5076113;28;20242;-73
2022/01/12 08:23:51;;;;;;;138.18;38.13;;;;;;;2.15;97.85;103916.00;5079727;28;20016;-72
2022/01/12 08:26:16;;;;;;;129.57;35.88;;;;;;;2.16;97.22;103912.66;5073713;28;20063;-73
2022/01/12 08:28:42;;;;;;;130.15;36.85;;;;;;;2.15;97.16;103916.91;5070980;28;20027;-72
2022/01/12 08:31:07;;;;;;;134.85;37.60;;;;;;;2.16;97.77;103916.19;5093999;28;20043;-73
2022/01/12 08:33:33;;;;;;;134.23;38.17;;;;;;;2.16;98.09;103911.03;5094695;28;20187;-72
2022/01/12 08:35:58;;;;;;;129.18;39.13;;;;;;;2.17;97.61;103906.78;5103624;28;20039;-73
2022/01/12 08:38:24;;;;;;;134.25;38.13;;;;;;;2.17;97.78;103917.06;5104367;28;20016;-73
2022/01/12 08:40:49;;;;;;;136.43;38.58;;;;;;;2.17;97.80;103918.00;5103500;28;20033;-73
2022/01/12 08:43:15;;;;;;;143.75;38.72;;;;;;;2.17;98.46;103915.44;5093315;28;20028;-73
2022/01/12 08:45:40;;;;;;;147.38;38.80;;;;;;;2.19;97.87;103908.78;5104560;28;20102;-73
2022/01/12 08:48:05;;;;;;;134.57;37.63;;;;;;;2.19;98.38;103911.34;5104347;28;20012;-73
2022/01/12 08:50:31;;;;;;;141.13;39.00;;;;;;;2.21;98.70;103909.84;5104302;28;20066;-73
2022/01/12 08:52:56;;;;;;;139.07;36.97;;;;;;;2.22;98.32;103914.25;5104334;28;20083;-73
2022/01/12 08:55:23;;;;;;;140.75;39.88;;;;;;;2.23;98.35;103913.50;5104210;28;20109;-72
2022/01/12 08:57:50;;;;;;;145.65;38.33;;;;;;;2.22;98.15;103914.25;5099538;28;20167;-72
2022/01/12 09:00:16;;;;;;;147.95;37.40;;;;;;;2.24;98.39;103923.03;5085182;28;20016;-72
2022/01/12 09:02:42;;;;;;;143.70;39.38;;;;;;;2.26;98.78;103930.94;5075963;28;20031;-72
2022/01/12 09:05:08;;;;;;;154.52;38.67;;;;;;;2.27;98.58;103919.88;5100075;28;20043;-72
2022/01/12 09:07:34;;;;;;;141.70;39.10;;;;;;;2.29;98.97;103931.28;5104199;28;20031;-73
2022/01/12 09:09:59;;;;;;;143.07;40.75;;;;;;;2.31;98.97;103937.47;5090094;28;20182;-73
2022/01/12 09:12:25;;;;;;;138.07;38.25;;;;;;;2.34;98.73;103944.63;5103938;28;20335;-73
2022/01/12 09:14:52;;;;;;;136.93;37.65;;;;;;;2.36;98.61;103945.69;5095260;28;20046;-72
2022/01/12 09:17:20;;;;;;;143.65;36.75;;;;;;;2.37;98.89;103952.66;5087709;28;20424;-73
2022/01/12 09:19:46;;;;;;;128.18;34.17;;;;;;;2.39;98.56;103964.97;5076360;28;20044;-68
2022/01/12 09:22:12;;;;;;;147.85;38.20;;;;;;;2.42;99.05;103964.38;5078994;28;20032;-68
2022/01/12 09:24:38;;;;;;;122.93;31.33;;;;;;;2.42;99.17;103959.25;5079026;28;20032;-68
2022/01/12 09:27:04;;;;;;;126.68;33.45;;;;;;;2.43;98.92;103964.53;5082498;28;20099;-68
2022/01/12 09:29:30;;;;;;;123.07;32.53;;;;;;;2.45;99.41;103964.72;5093877;28;20162;-68
2022/01/12 09:31:55;;;;;;;100.82;29.25;;;;;;;2.47;99.01;103976.06;5102318;28;20274;-68
2022/01/12 09:34:20;;;;;;;101.80;29.05;;;;;;;2.49;99.56;103973.66;5092753;28;20170;-68
2022/01/12 09:36:45;;;;;;;107.57;29.88;;;;;;;2.50;99.01;103975.50;5095713;28;20150;-68
2022/01/12 09:39:11;;;;;;;107.68;28.15;;;;;;;2.53;99.23;103984.44;5077194;28;20048;-68
2022/01/12 09:41:36;;;;;;;98.25;27.05;;;;;;;2.54;99.04;103982.78;5102577;28;20016;-68
2022/01/12 09:44:03;;;;;;;102.10;29.92;;;;;;;2.55;99.09;103980.38;5102836;28;20032;-68
2022/01/12 09:46:29;;;;;;;101.38;27.35;;;;;;;2.55;98.98;103980.38;5102360;28;20255;-68
2022/01/12 09:48:56;;;;;;;111.93;30.23;;;;;;;2.56;99.25;103986.44;5093685;28;20070;-68
2022/01/12 09:51:22;;;;;;;98.07;28.35;;;;;;;2.57;99.37;103984.03;5099729;28;20261;-68
2022/01/12 09:53:50;;;;;;;110.15;30.10;;;;;;;2.59;99.25;103990.25;5106546;28;20020;-68
2022/01/12 09:56:20;;;;;;;108.43;29.35;;;;;;;2.60;99.46;103993.75;5106213;28;20016;-68
2022/01/12 09:58:47;;;;;;;124.38;31.85;;;;;;;2.62;99.56;103994.81;5094534;28;20034;-68
2022/01/12 10:01:24;;;;;;;107.68;29.60;;;;;;;2.65;99.91;103999.38;5096414;28;20315;-68
2022/01/12 10:03:49;;;;;;;103.30;27.10;;;;;;;2.65;99.43;104001.94;5092540;28;20254;-68
2022/01/12 10:06:16;;;;;;;95.90;26.58;;;;;;;2.66;99.46;104020.13;5107453;28;20016;-68
2022/01/12 10:08:42;;;;;;;88.43;26.08;;;;;;;2.67;99.33;104018.50;5107560;28;20062;-68
2022/01/12 10:11:12;;;;;;;90.50;25.08;;;;;;;2.68;99.63;104022.88;5101548;28;20262;-68
2022/01/12 10:13:40;;;;;;;90.18;25.50;;;;;;;2.70;99.61;104029.13;5093080;28;20175;-68
2022/01/12 10:16:17;;;;;;;97.72;27.40;;;;;;;2.70;99.60;104030.00;5100214;28;20126;-68
2022/01/12 10:18:51;;;;;;;93.05;26.38;;;;;;;2.68;99.54;104018.66;5107324;28;20087;-68
2022/01/12 10:21:32;;;;;;;86.43;25.63;;;;;;;2.72;99.46;104019.88;5107138;28;20004;-68
2022/01/12 10:24:09;;;;;;;88.40;25.67;;;;;;;2.72;99.72;104009.56;5102346;28;20281;-68
2022/01/12 10:26:40;;;;;;;111.03;28.63;;;;;;;2.72;99.45;104015.66;5107239;28;20042;-68
2022/01/12 10:29:11;;;;;;;98.35;26.80;;;;;;;2.75;99.46;104010.84;5095445;28;20035;-68
2022/01/12 10:31:53;;;;;;;102.40;26.13;;;;;;;2.77;99.89;104006.75;5107101;28;20347;-68
2022/01/12 10:34:25;;;;;;;95.32;23.98;;;;;;;2.77;99.68;104005.84;5106843;28;20219;-68
2022/01/12 10:36:51;;;;;;;90.18;23.33;;;;;;;2.76;99.45;103999.75;5103650;28;20131;-68
2022/01/12 10:39:18;;;;;;;85.40;23.77;;;;;;;2.77;99.71;103998.13;5105670;28;20026;-68
2022/01/12 10:42:02;;;;;;;94.78;23.40;;;;;;;2.78;99.75;104012.78;5107046;28;20027;-68
2022/01/12 10:44:31;;;;;;;97.25;23.85;;;;;;;2.79;99.63;104014.63;5082501;28;20021;-68
2022/01/12 10:47:09;;;;;;;100.97;24.77;;;;;;;2.80;99.81;104008.75;5096449;28;20023;-68
2022/01/12 10:49:38;;;;;;;89.97;23.38;;;;;;;2.82;99.83;104017.53;5086913;28;20077;-68
2022/01/12 10:52:12;;;;;;;96.25;24.83;;;;;;;2.84;99.73;104021.19;5106702;28;20035;-68
2022/01/12 10:54:46;;;;;;;103.20;26.58;;;;;;;2.86;99.57;104014.53;5106694;28;20016;-68
2022/01/12 10:57:39;;;;;;;97.85;25.80;;;;;;;2.86;99.58;104017.13;5091712;28;20012;-68
2022/01/12 11:00:18;;;;;;;101.07;25.73;;;;;;;2.88;99.72;104014.69;5090964;28;20043;-68
2022/01/12 11:03:02;;;;;;;101.43;25.63;;;;;;;2.87;99.61;104021.53;5106548;28;20020;-68
2022/01/12 11:05:32;;;;;;;101.72;25.05;;;;;;;2.88;99.29;104028.50;5089994;28;20024;-68
2022/01/12 11:07:57;;;;;;;;;;;;;;;2.93;98.85;104021.25;5105873;28;20027;-68
2022/01/12 11:10:23;;;;;;;98.70;24.25;;;;;;;2.90;98.65;104020.94;5106167;28;19896;-68
2022/01/12 11:12:50;;;;;;;92.20;24.65;;;;;;;2.87;98.80;104013.78;5102773;28;20039;-68
2022/01/12 11:15:18;;;;;;;104.38;25.45;;;;;;;2.86;98.77;104023.94;5102855;28;20020;-68
2022/01/12 11:17:46;;;;;;;113.63;25.48;;;;;;;2.85;98.80;104017.84;5106366;28;20044;-68
2022/01/12 11:20:18;;;;;;;99.82;25.42;;;;;;;2.85;98.65;104016.94;5102491;28;20101;-68
2022/01/12 11:22:44;;;;;;;99.32;26.15;;;;;;;2.85;98.88;104012.69;5106288;28;20042;-68
2022/01/12 11:25:31;;;;;;;102.25;25.80;;;;;;;2.87;98.77;104025.75;5106206;28;20020;-68
2022/01/12 11:28:07;;;;;;;99.35;25.67;;;;;;;2.87;98.46;104031.81;5106155;28;20155;-68
2022/01/12 11:30:33;;;;;;;98.75;25.05;;;;;;;2.89;98.52;104029.41;5105978;28;20027;-68
2022/01/12 11:33:02;;;;;;;96.20;24.95;;;;;;;2.89;98.83;104029.41;5095543;28;20270;-68
2022/01/12 11:35:33;;;;;;;93.27;24.67;;;;;;;2.91;98.80;104025.31;5084891;28;20016;-68
2022/01/12 11:38:00;;;;;;;106.05;24.83;;;;;;;2.91;98.82;104031.41;5078896;28;20313;-68
2022/01/12 11:40:39;;;;;;;105.53;27.30;;;;;;;2.92;98.52;104033.22;5078784;28;20163;-68
2022/01/12 11:43:27;;;;;;;109.15;27.15;;;;;;;2.93;98.73;104032.47;5105662;28;20087;-68
2022/01/12 11:46:00;;;;;;;104.40;24.88;;;;;;;2.93;98.53;104032.47;5105754;28;20194;-68
2022/01/12 11:48:35;;;;;;;94.78;26.08;;;;;;;2.96;98.78;104022.47;5105639;28;20191;-68
2022/01/12 11:51:00;;;;;;;108.03;27.58;;;;;;;2.99;98.61;104021.91;5091700;28;20024;-68
2022/01/12 11:53:27;;;;;;;97.00;27.40;;;;;;;2.99;98.68;104006.44;5104075;28;20087;-68
2022/01/12 11:55:52;;;;;;;101.20;26.10;;;;;;;2.99;98.17;104006.44;5106099;28;20015;-68
2022/01/12 11:58:18;;;;;;;110.15;28.58;;;;;;;2.98;98.00;103999.47;5101298;28;20020;-68
2022/01/12 12:00:44;;;;;;;89.90;25.52;;;;;;;2.97;97.91;104010.53;5087833;28;20008;-68
2022/01/12 12:03:16;;;;;;;97.88;23.88;;;;;;;2.99;97.86;104019.31;5099618;28;20023;-68
2022/01/12 12:05:42;;;;;;;103.78;26.10;;;;;;;2.96;97.60;104027.63;5105269;28;20016;-68
2022/01/12 12:08:07;;;;;;;92.32;24.73;;;;;;;2.98;98.20;104021.75;5104890;28;20050;-68
2022/01/12 12:10:38;;;;;;;104.43;26.73;;;;;;;2.98;97.84;104024.31;5104738;28;20024;-68
2022/01/12 12:13:05;;;;;;;89.82;25.27;;;;;;;2.98;97.68;104026.91;5104854;28;20279;-68
2022/01/12 12:15:31;;;;;;;94.72;24.50;;;;;;;2.97;97.87;104023.41;5100829;28;20020;-68
2022/01/12 12:18:00;;;;;;;96.60;24.30;;;;;;;3.00;97.73;104022.81;5105105;28;20023;-68
2022/01/12 12:20:26;;;;;;;91.15;24.77;;;;;;;3.02;97.85;104026.47;5103879;28;20077;-68
2022/01/12 12:22:53;;;;;;;87.47;24.30;;;;;;;3.02;97.50;104034.19;5104833;28;20073;-68
2022/01/12 12:25:21;;;;;;;88.30;23.98;;;;;;;3.02;97.11;104026.47;5100564;28;20023;-68
2022/01/12 12:27:51;;;;;;;93.45;24.67;;;;;;;3.00;97.16;104021.16;5104664;28;20159;-68